Time;durP1;ratioP1;P1;durP2;ratioP2;P2;SDS_P1;SDS_P2;PMS_P1;PMS_P2;Temp;Humidity;BMP_temperature;BMP_pressure;BME280_temperature;BME280_humidity;BME280_pressure;Samples;Min_cycle;Max_cycle;Signal;HPM_P1;HPM_P2
2024/03/01 00:00:02;;;;;;;19.47;12.13;;;;;;;4.66;74.85;97947.59;5157371;27;41717;-82
2024/03/01 00:02:34;;;;;;;19.73;11.43;;;;;;;4.65;74.58;97945.91;5173090;27;41866;-77
2024/03/01 00:05:02;;;;;;;20.40;11.47;;;;;;;4.62;74.04;97940.81;5157170;27;42951;-83
2024/03/01 00:07:31;;;;;;;16.30;10.03;;;;;;;4.60;73.83;97947.91;5156800;27;44005;-83
2024/03/01 00:09:59;;;;;;;14.80;10.10;;;;;;;4.48;75.73;97924.97;5174366;27;38970;-82
2024/03/01 00:12:26;;;;;;;19.60;11.50;;;;;;;4.57;76.60;97934.97;5156715;27;41216;-83
2024/03/01 00:14:54;;;;;;;19.73;12.40;;;;;;;4.54;79.34;97922.03;5173403;27;43752;-78
2024/03/01 00:17:21;;;;;;;26.07;13.67;;;;;;;4.54;79.34;97921.19;5156726;27;42266;-84
2024/03/01 00:19:49;;;;;;;19.27;12.57;;;;;;;4.50;78.55;97920.47;5175661;27;42465;-86
2024/03/01 00:22:17;;;;;;;22.60;12.97;;;;;;;4.57;78.03;97934.97;5175568;27;42340;-77
2024/03/01 00:24:45;;;;;;;21.80;12.53;;;;;;;4.39;77.16;97917.59;5174075;27;43342;-80
2024/03/01 00:27:13;;;;;;;18.07;11.37;;;;;;;4.49;76.46;97938.91;5156951;27;42588;-79
2024/03/01 00:29:40;;;;;;;19.17;10.77;;;;;;;4.45;76.14;97937.41;5175457;27;40009;-81
2024/03/01 00:32:08;;;;;;;17.00;10.10;;;;;;;4.42;75.99;97941.03;5173598;27;40558;-78
2024/03/01 00:34:36;;;;;;;18.10;10.67;;;;;;;4.37;75.77;97937.78;5174853;27;42816;-82
2024/03/01 00:37:03;;;;;;;16.43;9.93;;;;;;;4.20;75.71;97916.88;5174117;27;42252;-84
2024/03/01 00:39:31;;;;;;;18.93;11.23;;;;;;;4.31;75.79;97935.50;5174127;27;39987;-80
2024/03/01 00:42:00;;;;;;;17.63;10.40;;;;;;;4.28;75.77;97936.50;5156317;27;42871;-83
2024/03/01 00:44:27;;;;;;;17.77;11.40;;;;;;;4.26;75.70;97947.97;5156302;27;41536;-81
2024/03/01 00:46:54;;;;;;;15.97;10.63;;;;;;;4.24;75.52;97939.34;5174178;27;42106;-78
2024/03/01 00:49:22;;;;;;;15.23;9.47;;;;;;;4.02;75.73;97907.31;5173977;27;40087;-80
2024/03/01 00:51:49;;;;;;;18.80;11.77;;;;;;;4.20;76.07;97943.06;5173740;27;41858;-81
2024/03/01 00:54:17;;;;;;;16.87;10.53;;;;;;;4.19;75.86;97933.50;5156017;27;41999;-82
2024/03/01 00:56:45;;;;;;;15.97;10.17;;;;;;;4.17;75.94;97930.13;5173738;27;42099;-80
2024/03/01 00:59:14;;;;;;;15.47;9.13;;;;;;;4.15;75.50;97924.97;5173264;27;39140;-82
2024/03/01 01:01:42;;;;;;;15.93;9.33;;;;;;;4.12;75.61;97919.88;5156678;27;40744;-82
2024/03/01 01:04:09;;;;;;;20.03;10.63;;;;;;;3.98;75.75;97896.16;5156035;27;43282;-83
2024/03/01 01:06:37;;;;;;;17.57;10.97;;;;;;;4.10;75.38;97920.88;5175656;27;42142;-82
2024/03/01 01:09:04;;;;;;;13.80;8.40;;;;;;;4.07;75.33;97926.28;5159764;27;38929;-85
2024/03/01 01:11:32;;;;;;;17.87;10.67;;;;;;;3.97;75.62;97910.16;5177078;27;42637;-83
2024/03/01 01:13:59;;;;;;;20.03;11.20;;;;;;;4.03;75.72;97909.88;5159011;27;42032;-78
2024/03/01 01:16:28;;;;;;;14.70;9.57;;;;;;;4.03;76.14;97898.53;5177295;27;42353;-77
2024/03/01 01:18:56;;;;;;;20.87;12.33;;;;;;;3.98;78.20;97881.28;5159691;27;39992;-82
2024/03/01 01:21:23;;;;;;;18.97;12.10;;;;;;;4.01;78.05;97893.38;5178354;27;42768;-77
2024/03/01 01:23:51;;;;;;;24.23;14.77;;;;;;;3.99;78.07;97897.84;5177019;27;41785;-80
2024/03/01 01:26:19;;;;;;;23.63;13.77;;;;;;;4.00;78.07;97898.69;5176849;27;41122;-82
2024/03/01 01:28:48;;;;;;;19.37;11.63;;;;;;;3.98;77.50;97890.91;5159472;27;41542;-85
2024/03/01 01:31:16;;;;;;;17.67;10.77;;;;;;;3.97;77.38;97887.44;5178229;27;41760;-84
2024/03/01 01:33:45;;;;;;;20.90;11.43;;;;;;;3.93;77.10;97883.31;5176497;27;43042;-79
2024/03/01 01:36:12;;;;;;;15.97;9.23;;;;;;;3.82;76.93;97872.53;5177060;27;42254;-80
2024/03/01 01:38:40;;;;;;;21.07;12.07;;;;;;;3.93;76.86;97893.78;5176835;27;40264;-82
2024/03/01 01:41:07;;;;;;;17.07;11.03;;;;;;;3.90;77.88;97875.59;5177605;27;40901;-77
2024/03/01 01:43:37;;;;;;;20.40;12.70;;;;;;;3.88;78.01;97873.97;5177117;27;44680;-78
2024/03/01 01:46:06;;;;;;;18.87;11.67;;;;;;;3.73;77.65;97865.13;5177590;27;43364;-79
2024/03/01 01:48:33;;;;;;;17.13;11.03;;;;;;;3.82;77.19;97875.16;5177479;27;40094;-80
2024/03/01 01:51:03;;;;;;;18.10;11.50;;;;;;;3.80;77.28;97877.00;5160514;27;41852;-76
2024/03/01 01:53:32;;;;;;;16.30;10.37;;;;;;;3.79;76.92;97887.53;5178429;27;42741;-77
2024/03/01 01:56:00;;;;;;;15.70;9.73;;;;;;;3.76;77.08;97895.56;5159776;27;42707;-80
2024/03/01 01:58:29;;;;;;;19.43;10.97;;;;;;;3.72;76.98;97889.63;5159805;27;40775;-84
2024/03/01 02:00:57;;;;;;;13.63;8.43;;;;;;;3.51;76.70;97864.53;5177492;27;41836;-80
2024/03/01 02:03:27;;;;;;;17.70;10.77;;;;;;;3.66;76.62;97900.41;5178733;27;43776;-81
2024/03/01 02:05:55;;;;;;;19.07;11.53;;;;;;;3.63;76.98;97895.31;5177253;27;42156;-81
2024/03/01 02:08:24;;;;;;;20.77;11.53;;;;;;;3.61;77.16;97899.78;5159317;27;39900;-84
2024/03/01 02:10:51;;;;;;;19.77;11.93;;;;;;;3.58;77.30;97892.09;5176410;27;40381;-80
2024/03/01 02:13:19;;;;;;;20.13;12.50;;;;;;;3.57;77.28;97893.03;5176125;27;43406;-79
2024/03/01 02:15:47;;;;;;;15.40;10.17;;;;;;;3.55;77.04;97881.78;5176156;27;42566;-84
2024/03/01 02:18:15;;;;;;;17.07;9.90;;;;;;;3.50;76.92;97879.38;5175446;27;38845;-81
2024/03/01 02:20:57;;;;;;;17.20;9.93;;;;;;;3.53;77.29;97870.53;5176509;27;41551;-78
2024/03/01 02:23:27;;;;;;;22.07;11.80;;;;;;;3.52;77.27;97866.22;5177258;27;42591;-78
2024/03/01 02:25:55;;;;;;;22.50;12.80;;;;;;;3.50;79.78;97852.34;5175952;27;44261;-83
2024/03/01 02:28:23;;;;;;;20.83;12.03;;;;;;;3.42;79.08;97844.06;5175873;27;39154;-83
2024/03/01 02:30:51;;;;;;;19.83;10.93;;;;;;;3.49;79.02;97855.91;5175925;27;44339;-80
2024/03/01 02:33:19;;;;;;;18.43;11.87;;;;;;;3.49;79.35;97854.13;5176886;27;42809;-80
2024/03/01 02:35:46;;;;;;;21.37;12.73;;;;;;;3.48;79.39;97860.28;5175825;27;41454;-82
2024/03/01 02:38:14;;;;;;;18.47;10.73;;;;;;;3.47;79.40;97858.59;5158313;27;39007;-79
2024/03/01 02:40:43;;;;;;;20.03;11.03;;;;;;;3.46;79.21;97866.53;5175969;27;42639;-85
2024/03/01 02:43:11;;;;;;;20.07;11.83;;;;;;;3.45;78.96;97880.53;5158083;27;43228;-81
2024/03/01 02:45:39;;;;;;;19.73;11.13;;;;;;;3.18;79.18;97846.13;5175670;27;42188;-80
2024/03/01 02:48:07;;;;;;;15.63;10.30;;;;;;;3.42;79.23;97880.69;5158083;27;41490;-79
2024/03/01 02:50:34;;;;;;;21.70;12.90;;;;;;;3.40;79.42;97872.91;5176086;27;41875;-83
2024/03/01 02:53:02;;;;;;;19.80;11.33;;;;;;;3.39;79.32;97881.69;5175365;27;41683;-82
2024/03/01 02:55:29;;;;;;;19.40;11.07;;;;;;;3.38;79.44;97869.50;5175513;27;43532;-76
2024/03/01 02:58:01;;;;;;;17.63;10.47;;;;;;;3.30;79.24;97862.97;5175676;27;40010;-80
2024/03/01 03:00:29;;;;;;;17.93;11.33;;;;;;;3.37;79.52;97866.97;5173871;27;41685;-84
2024/03/01 03:02:56;;;;;;;18.10;11.07;;;;;;;3.34;79.54;97859.31;5157819;27;42239;-87
2024/03/01 03:05:24;;;;;;;17.43;10.67;;;;;;;3.33;79.16;97866.28;5175464;27;42789;-80
2024/03/01 03:07:51;;;;;;;22.23;12.80;;;;;;;3.32;79.41;97861.13;5157971;27;39140;-78
2024/03/01 03:10:19;;;;;;;17.13;10.87;;;;;;;3.30;79.11;97868.22;5157575;27;40424;-84
2024/03/01 03:12:47;;;;;;;14.87;9.97;;;;;;;3.28;78.74;97870.03;5157487;27;44154;-81
2024/03/01 03:15:17;;;;;;;18.57;10.43;;;;;;;3.12;78.75;97859.47;5175093;27;43359;-80
2024/03/01 03:17:45;;;;;;;18.83;10.17;;;;;;;3.21;78.66;97888.66;5175140;27;39088;-79
2024/03/01 03:20:15;;;;;;;19.60;11.80;;;;;;;3.18;79.10;97880.13;5176300;27;41734;-79
2024/03/01 03:22:45;;;;;;;17.73;9.77;;;;;;;3.15;79.03;97888.97;5157767;27;41787;-81
2024/03/01 03:25:13;;;;;;;18.50;10.30;;;;;;;3.15;78.54;97893.34;5175462;27;41898;-78
2024/03/01 03:27:41;;;;;;;15.30;9.77;;;;;;;3.12;78.76;97893.47;5176159;27;40193;-78
2024/03/01 03:30:09;;;;;;;17.20;9.87;;;;;;;3.10;78.57;97884.84;5175242;27;43041;-84
2024/03/01 03:32:38;;;;;;;15.33;9.67;;;;;;;3.06;78.53;97886.78;5174114;27;42813;-84
2024/03/01 03:35:07;;;;;;;16.10;9.67;;;;;;;3.07;78.61;97890.25;5174668;27;42251;-78
2024/03/01 03:37:34;;;;;;;17.20;10.00;;;;;;;3.05;78.63;97892.09;5175082;27;40834;-83
2024/03/01 03:40:13;;;;;;;14.27;9.33;;;;;;;3.02;78.55;97882.63;5175098;27;42038;-78
2024/03/01 03:42:41;;;;;;;16.83;9.93;;;;;;;3.00;78.40;97894.91;5171499;27;43342;-75
2024/03/01 03:45:09;;;;;;;17.07;10.57;;;;;;;2.98;78.38;97891.53;5174841;27;42677;-83
2024/03/01 03:47:38;;;;;;;15.37;9.33;;;;;;;2.94;78.61;97897.84;5174656;27;39854;-80
2024/03/01 03:50:07;;;;;;;17.77;10.57;;;;;;;2.92;78.64;97886.59;5174959;27;41762;-83
2024/03/01 03:52:35;;;;;;;16.47;9.60;;;;;;;2.91;78.38;97884.06;5157288;27;41654;-78
2024/03/01 03:55:04;;;;;;;17.37;10.30;;;;;;;2.88;78.40;97883.28;5175873;27;42190;-84
2024/03/01 03:57:33;;;;;;;19.40;9.80;;;;;;;2.87;78.37;97883.34;5156934;27;40028;-77
2024/03/01 04:00:01;;;;;;;19.17;9.53;;;;;;;2.86;78.03;97881.63;5156771;27;42928;-82
2024/03/01 04:02:29;;;;;;;14.63;8.87;;;;;;;2.88;77.94;97869.34;5174185;27;42548;-82
2024/03/01 04:04:57;;;;;;;13.87;8.33;;;;;;;2.88;77.63;97874.56;5174203;27;42535;-77
2024/03/01 04:07:25;;;;;;;17.07;8.87;;;;;;;2.92;77.48;97880.50;5156906;27;41222;-76
2024/03/01 04:09:52;;;;;;;14.60;8.37;;;;;;;2.94;77.57;97882.16;5175760;27;41801;-82
2024/03/01 04:12:20;;;;;;;19.23;10.10;;;;;;;2.98;77.29;97891.53;5156998;27;43568;-83
2024/03/01 04:14:48;;;;;;;17.23;10.23;;;;;;;3.00;77.01;97891.44;5156577;27;41120;-81
2024/03/01 04:17:15;;;;;;;12.60;8.07;;;;;;;2.89;76.95;97877.13;5174369;27;40789;-83
2024/03/01 04:19:43;;;;;;;15.20;8.43;;;;;;;3.03;76.90;97905.25;5156613;27;41670;-79
2024/03/01 04:22:13;;;;;;;14.43;9.17;;;;;;;3.05;76.76;97913.00;5156704;27;43976;-78
2024/03/01 04:24:41;;;;;;;13.10;8.10;;;;;;;3.05;76.95;97913.88;5173865;27;41346;-82
2024/03/01 04:27:09;;;;;;;13.47;8.73;;;;;;;3.07;76.61;97916.41;5174226;27;41697;-79
2024/03/01 04:29:36;;;;;;;14.70;8.87;;;;;;;2.89;76.78;97877.13;5156538;27;42113;-79
2024/03/01 04:32:07;;;;;;;17.03;9.60;;;;;;;3.07;77.05;97909.41;5173969;27;42452;-75
2024/03/01 04:34:34;;;;;;;14.47;8.97;;;;;;;3.08;77.10;97913.72;5156664;27;41282;-76
2024/03/01 04:37:03;;;;;;;14.80;9.40;;;;;;;2.95;77.51;97881.22;5175519;27;39846;-79
2024/03/01 04:39:32;;;;;;;17.53;10.20;;;;;;;3.11;77.47;97902.25;5173819;27;42294;-82
2024/03/01 04:41:59;;;;;;;18.97;10.67;;;;;;;2.79;78.40;97848.88;5155988;27;43829;-75
2024/03/01 04:44:27;;;;;;;21.73;11.77;;;;;;;3.16;78.98;97905.50;5175178;27;42333;-82
2024/03/01 04:46:56;;;;;;;22.27;12.00;;;;;;;3.14;78.82;97899.50;5157153;27;39497;-85
2024/03/01 04:49:23;;;;;;;18.30;10.90;;;;;;;3.23;78.50;97912.97;5173659;27;41498;-81
2024/03/01 04:51:51;;;;;;;14.50;9.47;;;;;;;3.27;78.37;97908.44;5175287;27;43484;-79
2024/03/01 04:54:18;;;;;;;14.80;9.87;;;;;;;3.31;78.46;97914.38;5155977;27;43028;-85
2024/03/01 04:56:47;;;;;;;21.37;11.70;;;;;;;3.34;80.80;97903.78;5173882;27;41195;-79
2024/03/01 04:59:14;;;;;;;26.07;13.47;;;;;;;3.36;81.08;97915.00;5173658;27;42996;-82
2024/03/01 05:01:42;;;;;;;23.60;12.33;;;;;;;3.43;80.43;97913.78;5175135;27;42715;-79
2024/03/01 05:04:09;;;;;;;18.80;11.47;;;;;;;3.49;79.96;97914.31;5173458;27;42658;-86
2024/03/01 05:06:37;;;;;;;17.47;10.30;;;;;;;3.46;79.75;97908.41;5174733;27;41060;-84
2024/03/01 05:09:07;;;;;;;16.70;10.90;;;;;;;3.62;79.39;97919.81;5155949;27;43192;-80
2024/03/01 05:11:36;;;;;;;14.73;9.40;;;;;;;3.51;79.14;97901.16;5172965;27;43670;-83
2024/03/01 05:14:05;;;;;;;14.37;9.70;;;;;;;3.74;78.82;97928.81;5155267;27;42850;-82
2024/03/01 05:16:32;;;;;;;14.40;8.83;;;;;;;3.77;78.79;97932.13;5173618;27;41051;-79
2024/03/01 05:19:00;;;;;;;16.37;9.50;;;;;;;3.81;78.59;97936.31;5155830;27;41547;-80
2024/03/01 05:21:27;;;;;;;18.23;10.63;;;;;;;3.86;78.46;97942.16;5156026;27;44427;-85
2024/03/01 05:23:55;;;;;;;12.97;8.67;;;;;;;3.92;78.18;97943.63;5155628;27;42152;-82
2024/03/01 05:26:25;;;;;;;17.70;10.53;;;;;;;3.96;78.20;97951.22;5173995;27;40111;-83
2024/03/01 05:28:53;;;;;;;14.43;9.17;;;;;;;3.86;78.11;97928.19;5172233;27;41601;-86
2024/03/01 05:31:22;;;;;;;21.37;12.97;;;;;;;3.99;78.16;97955.47;5173508;27;43545;-83
2024/03/01 05:33:49;;;;;;;18.03;11.17;;;;;;;3.98;78.34;97959.00;5172958;27;42708;-76
2024/03/01 05:36:17;;;;;;;14.87;9.37;;;;;;;3.94;78.07;97966.19;5173270;27;38911;-79
2024/03/01 05:38:44;;;;;;;16.23;10.07;;;;;;;3.88;78.17;97968.25;5172676;27;40797;-77
2024/03/01 05:41:13;;;;;;;15.43;8.90;;;;;;;3.79;77.96;97964.34;5173493;27;43714;-82
2024/03/01 05:43:41;;;;;;;18.57;10.73;;;;;;;3.72;78.58;97957.69;5174243;27;43187;-80
2024/03/01 05:46:14;;;;;;;21.23;12.50;;;;;;;3.65;79.51;97950.22;5172848;27;41775;-79
2024/03/01 05:48:43;;;;;;;19.77;12.80;;;;;;;3.47;79.60;97933.63;5172633;27;42429;-83
2024/03/01 05:51:11;;;;;;;22.23;12.87;;;;;;;3.52;81.42;97945.59;5173320;27;43806;-81
2024/03/01 05:53:41;;;;;;;20.03;12.57;;;;;;;3.49;80.71;97942.25;5174731;27;42874;-79
2024/03/01 05:56:17;;;;;;;22.33;13.30;;;;;;;3.47;80.66;97951.94;5176542;27;40724;-81
2024/03/01 05:58:46;;;;;;;23.40;12.40;;;;;;;3.46;80.78;97953.72;5176421;27;42655;-80
2024/03/01 06:01:16;;;;;;;21.90;11.83;;;;;;;3.45;80.48;97953.81;5159029;27;43345;-82
2024/03/01 06:03:45;;;;;;;19.50;11.13;;;;;;;3.45;80.43;97964.28;5175792;27;41325;-85
2024/03/01 06:06:14;;;;;;;18.07;10.80;;;;;;;3.44;80.59;97965.22;5177003;27;41256;-82
2024/03/01 06:08:42;;;;;;;20.77;12.13;;;;;;;3.44;80.33;97968.69;5175511;27;43502;-76
2024/03/01 06:11:10;;;;;;;19.77;11.90;;;;;;;3.40;80.59;97966.28;5158323;27;42252;-84
2024/03/01 06:13:38;;;;;;;21.17;12.03;;;;;;;3.47;80.41;97978.13;5175334;27;42361;-79
2024/03/01 06:16:06;;;;;;;15.73;10.27;;;;;;;3.49;80.49;97992.84;5175625;27;40343;-78
2024/03/01 06:18:34;;;;;;;17.67;10.23;;;;;;;3.45;80.33;97980.00;5158199;27;40700;-80
2024/03/01 06:21:03;;;;;;;20.67;10.73;;;;;;;3.54;80.26;98010.94;5158729;27;42388;-81
2024/03/01 06:23:30;;;;;;;26.73;13.10;;;;;;;3.55;80.61;98002.19;5157931;27;41536;-82
2024/03/01 06:25:58;;;;;;;22.50;12.90;;;;;;;3.56;80.90;98004.72;5175464;27;39702;-77
2024/03/01 06:28:25;;;;;;;21.97;13.37;;;;;;;3.51;80.71;97988.38;5175129;27;40698;-81
2024/03/01 06:30:53;;;;;;;19.23;12.37;;;;;;;3.66;80.59;98015.59;5158411;27;41688;-79
2024/03/01 06:33:20;;;;;;;24.40;14.27;;;;;;;3.74;80.33;98017.84;5157896;27;41826;-80
2024/03/01 06:35:48;;;;;;;25.57;14.87;;;;;;;3.76;82.20;98000.28;5175771;27;39286;-84
2024/03/01 06:38:17;;;;;;;21.33;13.07;;;;;;;3.78;81.62;98012.38;5157614;27;42775;-78
2024/03/01 06:40:44;;;;;;;27.70;13.03;;;;;;;3.76;81.01;97995.91;5158143;27;43015;-83
2024/03/01 06:43:12;;;;;;;23.50;13.07;;;;;;;3.84;80.89;98001.59;5176402;27;43231;-82
2024/03/01 06:45:39;;;;;;;18.13;11.03;;;;;;;3.81;80.55;98003.53;5175242;27;39546;-83
2024/03/01 06:48:07;;;;;;;17.90;10.87;;;;;;;3.86;80.49;98012.00;5176665;27;41731;-84
2024/03/01 06:50:35;;;;;;;22.73;11.73;;;;;;;3.87;81.07;98014.56;5175452;27;42712;-81
2024/03/01 06:53:02;;;;;;;23.07;12.93;;;;;;;3.97;80.95;98028.03;5157000;27;44041;-78
2024/03/01 06:55:31;;;;;;;20.73;12.30;;;;;;;4.03;81.01;98030.38;5175654;27;41284;-78
2024/03/01 06:57:59;;;;;;;19.77;11.93;;;;;;;4.08;80.38;98033.59;5157722;27;42091;-78
2024/03/01 07:00:28;;;;;;;23.73;13.13;;;;;;;4.14;80.36;98033.31;5174807;27;41746;-79
2024/03/01 07:02:55;;;;;;;16.93;11.07;;;;;;;4.22;80.25;98035.53;5174861;27;42289;-79
2024/03/01 07:05:22;;;;;;;18.67;11.33;;;;;;;4.18;80.02;98013.03;5175078;27;40050;-82
2024/03/01 07:07:50;;;;;;;21.20;12.43;;;;;;;4.41;79.59;98033.69;5176242;27;42075;-77
2024/03/01 07:10:18;;;;;;;19.77;12.40;;;;;;;4.50;79.50;98029.75;5157403;27;42840;-84
2024/03/01 07:12:47;;;;;;;17.63;12.03;;;;;;;4.61;79.09;98033.50;5174970;27;43064;-82
2024/03/01 07:15:16;;;;;;;20.77;12.50;;;;;;;4.68;78.97;98021.78;5174899;27;40769;-79
2024/03/01 07:17:43;;;;;;;26.40;14.07;;;;;;;4.83;79.24;98021.88;5157139;27;43081;-78
2024/03/01 07:20:12;;;;;;;21.87;13.13;;;;;;;4.94;79.26;98020.41;5174980;27;43208;-81
2024/03/01 07:22:40;;;;;;;28.67;14.30;;;;;;;5.08;78.71;98011.78;5174752;27;42989;-82
2024/03/01 07:25:07;;;;;;;20.37;12.63;;;;;;;5.23;78.45;98005.72;5175038;27;41189;-82
2024/03/01 07:27:35;;;;;;;23.30;13.50;;;;;;;5.39;78.42;98008.34;5157032;27;40789;-80
2024/03/01 07:30:05;;;;;;;21.47;13.47;;;;;;;5.55;77.73;97995.22;5174853;27;42900;-84
2024/03/01 07:32:34;;;;;;;25.77;15.67;;;;;;;5.70;77.60;98004.84;5175355;27;41903;-80
2024/03/01 07:35:03;;;;;;;24.20;14.50;;;;;;;5.84;77.33;98002.28;5157471;27;40796;-82
2024/03/01 07:37:31;;;;;;;23.97;14.90;;;;;;;5.95;76.85;97996.44;5156683;27;42173;-84
2024/03/01 07:39:59;;;;;;;22.63;14.47;;;;;;;6.26;76.47;98027.06;5175517;27;42854;-81
2024/03/01 07:42:26;;;;;;;24.97;14.10;;;;;;;6.42;75.85;98009.47;5175109;27;42465;-84
2024/03/01 07:44:55;;;;;;;20.17;14.03;;;;;;;6.47;75.45;98002.97;5156983;27;42824;-80
2024/03/01 07:47:26;;;;;;;25.33;14.90;;;;;;;6.77;75.33;98016.09;5174975;27;42727;-80
2024/03/01 07:49:53;;;;;;;21.07;14.33;;;;;;;7.18;74.64;98015.31;5159378;27;42060;-81
2024/03/01 07:52:21;;;;;;;25.73;15.10;;;;;;;7.34;73.58;98004.69;5175646;27;42296;-81
2024/03/01 07:54:48;;;;;;;23.17;14.90;;;;;;;7.69;73.05;98018.25;5176184;27;40087;-82
2024/03/01 07:57:16;;;;;;;27.63;15.90;;;;;;;8.18;72.14;98024.66;5178254;27;42468;-81
2024/03/01 07:59:43;;;;;;;24.20;15.20;;;;;;;8.66;70.77;98024.97;5159710;27;45481;-82
2024/03/01 08:02:11;;;;;;;27.60;16.80;;;;;;;8.96;70.44;98011.47;5158321;27;42396;-79
2024/03/01 08:04:40;;;;;;;24.97;15.57;;;;;;;9.44;69.86;98023.03;5174071;27;38501;-82
2024/03/01 08:07:08;;;;;;;24.10;15.50;;;;;;;9.83;68.71;98023.75;5173893;27;41766;-80
2024/03/01 08:09:40;;;;;;;22.97;14.47;;;;;;;10.04;67.16;98028.31;5175010;27;43746;-78
2024/03/01 08:12:10;;;;;;;22.97;14.80;;;;;;;10.16;66.59;98031.88;5155844;27;41409;-82
2024/03/01 08:14:38;;;;;;;24.80;15.80;;;;;;;10.28;66.04;98027.50;5156447;27;39194;-82
2024/03/01 08:17:07;;;;;;;21.33;14.17;;;;;;;10.37;65.69;98027.69;5173206;27;41956;-81
2024/03/01 08:19:36;;;;;;;24.03;14.37;;;;;;;10.43;65.40;98024.56;5173889;27;43149;-77
2024/03/01 08:22:09;;;;;;;20.13;13.63;;;;;;;10.42;65.46;98011.44;5173535;27;42353;-85
2024/03/01 08:24:38;;;;;;;23.17;14.87;;;;;;;10.59;65.06;98024.25;5156199;27;40491;-84
2024/03/01 08:27:06;;;;;;;22.07;14.73;;;;;;;10.63;65.00;98024.88;5156254;27;41013;-82
2024/03/01 08:29:34;;;;;;;24.37;14.90;;;;;;;10.76;64.42;98025.59;5173785;27;43758;-82
2024/03/01 08:32:02;;;;;;;22.60;14.83;;;;;;;11.09;63.82;98028.31;5155835;27;41405;-80
2024/03/01 08:34:41;;;;;;;23.03;14.90;;;;;;;11.28;62.96;98016.25;5156300;27;40088;-80
2024/03/01 08:37:19;;;;;;;23.10;16.67;;;;;;;11.79;62.21;98029.88;5157356;27;20220;-82
2024/03/01 08:39:47;;;;;;;20.97;14.67;;;;;;;11.99;61.11;98015.81;5173794;27;42397;-84
2024/03/01 08:42:16;;;;;;;23.47;15.37;;;;;;;12.38;60.46;98017.00;5173816;27;43647;-80
2024/03/01 08:44:53;;;;;;;23.63;16.27;;;;;;;13.05;58.36;98039.69;5155816;27;40410;-84
2024/03/01 08:47:27;;;;;;;22.33;15.00;;;;;;;13.67;56.80;98047.59;5171848;27;41717;-80
2024/03/01 08:50:33;;;;;;;20.80;14.53;;;;;;;14.16;55.43;98051.19;5170442;27;43441;-82
2024/03/01 08:53:02;;;;;;;23.63;15.60;;;;;;;14.33;54.21;98055.88;5171145;27;42643;-84
2024/03/01 08:55:50;;;;;;;22.43;15.80;;;;;;;14.66;53.75;98058.13;5173553;27;40262;-86
2024/03/01 08:58:25;;;;;;;23.47;15.77;;;;;;;14.91;52.67;98064.72;5173155;27;40640;-84
2024/03/01 09:00:55;;;;;;;24.67;16.40;;;;;;;14.88;52.35;98058.81;5156183;27;43213;-85
2024/03/01 09:03:29;;;;;;;20.63;15.50;;;;;;;14.89;52.25;98076.50;5172865;27;43185;-82
2024/03/01 09:05:59;;;;;;;23.53;16.10;;;;;;;14.96;52.54;98077.63;5171778;27;40025;-87
2024/03/01 09:08:32;;;;;;;22.97;17.10;;;;;;;15.21;52.00;98078.81;5155792;27;43052;-84
2024/03/01 09:10:59;;;;;;;22.33;15.10;;;;;;;15.41;51.53;98075.97;5169862;27;43836;-81
2024/03/01 09:13:28;;;;;;;21.87;15.47;;;;;;;15.52;50.93;98077.63;5155608;27;41225;-88
2024/03/01 09:15:58;;;;;;;23.90;15.10;;;;;;;15.66;50.21;98079.00;5155250;27;38907;-81
2024/03/01 09:18:43;;;;;;;20.40;15.27;;;;;;;15.84;50.40;98069.22;5172814;27;41252;-81
2024/03/01 09:21:41;;;;;;;20.87;15.93;;;;;;;16.09;49.79;98081.03;5156004;27;41736;-83
2024/03/01 09:24:12;;;;;;;23.37;16.47;;;;;;;16.75;48.04;98078.09;5172327;27;43344;-81
2024/03/01 09:26:40;;;;;;;20.53;15.00;;;;;;;17.18;47.42;98058.56;5171544;27;41848;-81
2024/03/01 09:29:08;;;;;;;25.80;17.27;;;;;;;17.72;45.77;98075.28;5159129;27;40762;-82
2024/03/01 09:31:35;;;;;;;22.30;15.17;;;;;;;18.59;44.89;98094.53;5178033;27;44120;-82
2024/03/01 09:34:08;;;;;;;23.63;15.47;;;;;;;19.29;43.89;98091.38;5175982;27;41096;-81
2024/03/01 09:36:36;;;;;;;22.37;15.97;;;;;;;19.12;43.68;98093.25;5173634;27;39938;-85
2024/03/01 09:39:05;;;;;;;19.80;15.83;;;;;;;19.09;43.87;98084.69;5158599;27;40751;-83
2024/03/01 09:41:56;;;;;;;20.70;14.60;;;;;;;18.92;43.27;98094.56;5176218;27;41958;-86
2024/03/01 09:44:43;;;;;;;23.70;16.10;;;;;;;18.69;44.12;98083.66;5158808;27;43077;-86
2024/03/01 09:47:24;;;;;;;20.27;15.47;;;;;;;18.54;44.55;98078.09;5176929;27;40098;-85
2024/03/01 09:50:09;;;;;;;22.33;16.37;;;;;;;18.33;45.30;98076.84;5174113;27;42044;-84
2024/03/01 09:52:50;;;;;;;25.67;17.40;;;;;;;18.21;44.93;98079.84;5158846;27;41796;-81
2024/03/01 09:55:27;;;;;;;24.43;16.87;;;;;;;18.08;45.03;98079.47;5158837;27;41220;-83
2024/03/01 09:58:04;;;;;;;22.97;16.33;;;;;;;17.99;45.26;98075.06;5159053;27;40068;-82
2024/03/01 10:00:33;;;;;;;24.93;15.80;;;;;;;17.75;45.43;98057.06;5158344;27;40537;-80
2024/03/01 10:03:12;;;;;;;24.40;16.20;;;;;;;17.53;45.53;98089.72;5175923;27;43071;-84
2024/03/01 10:05:59;;;;;;;22.17;15.53;;;;;;;17.19;45.96;98062.88;5173073;27;43442;-83
2024/03/01 10:08:35;;;;;;;21.13;14.70;;;;;;;17.06;46.03;98075.84;5176081;27;39304;-83
2024/03/01 10:11:24;;;;;;;21.90;14.73;;;;;;;16.88;46.28;98071.34;5172934;27;42589;-86
2024/03/01 10:14:02;;;;;;;23.07;15.07;;;;;;;16.93;46.79;98064.72;5175932;27;42845;-81
2024/03/01 10:16:49;;;;;;;22.87;15.13;;;;;;;16.76;46.93;98042.34;5175607;27;42104;-85
2024/03/01 10:19:44;;;;;;;23.30;16.53;;;;;;;16.70;47.36;98054.47;5175628;27;41299;-82
2024/03/01 10:22:22;;;;;;;23.07;15.43;;;;;;;16.47;47.73;98046.03;5175518;27;42272;-84
2024/03/01 10:25:06;;;;;;;22.43;15.30;;;;;;;16.40;47.98;98057.50;5158139;27;42068;-82
2024/03/01 10:27:37;;;;;;;20.70;14.67;;;;;;;16.20;47.71;98063.97;5172538;27;43263;-82
2024/03/01 10:30:11;;;;;;;20.20;14.47;;;;;;;15.87;48.06;98050.25;5172028;27;40294;-85
2024/03/01 10:32:50;;;;;;;21.90;14.50;;;;;;;15.75;48.66;98056.78;5173058;27;41658;-86
2024/03/01 10:35:21;;;;;;;22.63;14.23;;;;;;;15.61;49.34;98050.09;5172413;27;43383;-81
2024/03/01 10:38:09;;;;;;;20.63;14.30;;;;;;;15.50;49.38;98042.22;5175028;27;41960;-84
2024/03/01 10:40:48;;;;;;;21.87;14.30;;;;;;;15.31;49.83;98040.50;5173058;27;41063;-84
2024/03/01 10:43:22;;;;;;;20.57;13.50;;;;;;;15.04;49.93;98035.94;5174939;27;40882;-84
2024/03/01 10:46:00;;;;;;;21.67;14.33;;;;;;;14.85;50.84;98035.09;5171637;27;43707;-86
2024/03/01 10:48:37;;;;;;;23.43;14.43;;;;;;;14.72;51.28;98030.91;5174364;27;43270;-85
2024/03/01 10:51:11;;;;;;;22.30;14.03;;;;;;;14.66;51.96;98026.16;5173313;27;40643;-81
2024/03/01 10:53:47;;;;;;;20.83;13.40;;;;;;;14.64;52.27;98027.28;5173535;27;42736;-84
2024/03/01 10:56:16;;;;;;;23.27;15.50;;;;;;;14.64;52.75;98022.78;5173244;27;44056;-79
2024/03/01 10:58:50;;;;;;;22.97;14.83;;;;;;;14.58;53.17;98018.03;5176221;27;42454;-84
2024/03/01 11:01:28;;;;;;;26.30;16.13;;;;;;;14.66;53.63;98018.16;5157426;27;40511;-87
2024/03/01 11:04:04;;;;;;;25.80;16.53;;;;;;;14.65;53.21;98027.13;5157317;27;40563;-85
2024/03/01 11:06:35;;;;;;;23.60;14.67;;;;;;;14.66;52.71;98023.50;5157771;27;43735;-85
2024/03/01 11:09:06;;;;;;;20.70;14.47;;;;;;;14.71;52.97;98023.09;5174715;27;42602;-82
2024/03/01 11:11:39;;;;;;;19.93;12.87;;;;;;;14.76;52.81;98014.63;5157260;27;39906;-82
2024/03/01 11:14:11;;;;;;;23.47;14.70;;;;;;;14.89;52.77;98020.50;5156794;27;42571;-84
2024/03/01 11:16:45;;;;;;;21.67;15.20;;;;;;;14.96;52.58;98016.31;5157434;27;41914;-82
2024/03/01 11:19:16;;;;;;;22.43;14.73;;;;;;;15.01;52.55;98024.69;5174067;27;41225;-88
2024/03/01 11:21:49;;;;;;;21.90;13.90;;;;;;;15.11;53.10;98014.84;5172871;27;40185;-86
2024/03/01 11:24:22;;;;;;;22.67;16.27;;;;;;;15.22;53.33;98004.00;5156414;27;42639;-83
2024/03/01 11:26:54;;;;;;;23.43;13.73;;;;;;;15.20;53.15;97976.66;5156985;27;42387;-81
2024/03/01 11:29:29;;;;;;;25.97;15.50;;;;;;;15.42;52.95;98002.94;5173830;27;42619;-84
2024/03/01 11:32:09;;;;;;;23.00;15.33;;;;;;;15.36;53.46;98003.53;5172504;27;39862;-80
2024/03/01 11:34:48;;;;;;;20.00;13.07;;;;;;;15.31;53.39;97995.13;5173783;27;42464;-85
2024/03/01 11:37:28;;;;;;;21.27;12.77;;;;;;;15.33;53.62;97993.13;5171266;27;42896;-86